createdAt,value
2023-03-27T00:00:10.887Z,63.28
2023-03-27T00:02:41.736Z,63.05
2023-03-27T00:05:10.560Z,62.53
2023-03-27T00:07:41.507Z,62.84
2023-03-27T00:10:10.936Z,62.76
2023-03-27T00:12:40.241Z,63.34
2023-03-27T00:15:09.769Z,62.92
2023-03-27T00:17:38.134Z,62.70
2023-03-27T00:20:08.887Z,62.80
2023-03-27T00:22:37.142Z,62.63
2023-03-27T00:25:05.988Z,62.78
2023-03-27T00:27:34.281Z,62.68
2023-03-27T00:30:05.155Z,62.98
2023-03-27T00:32:34.195Z,63.18
2023-03-27T00:35:02.470Z,63.33
2023-03-27T00:37:32.461Z,63.47
2023-03-27T00:40:00.658Z,63.31
2023-03-27T00:42:29.755Z,63.05
2023-03-27T00:44:58.007Z,63.50
2023-03-27T00:47:33.021Z,63.65
2023-03-27T00:50:04.972Z,64.01
2023-03-27T00:52:37.172Z,63.79
2023-03-27T00:55:10.861Z,64.07
2023-03-27T00:57:39.995Z,63.28
2023-03-27T01:00:14.309Z,64.75
2023-03-27T01:02:44.430Z,63.66
2023-03-27T01:05:13.489Z,64.51
2023-03-27T01:08:00.519Z,65.92
2023-03-27T01:10:41.667Z,63.67
2023-03-27T01:13:22.487Z,63.79
2023-03-27T01:15:55.974Z,64.65
2023-03-27T01:18:37.302Z,64.24
2023-03-27T01:21:49.214Z,64.27
2023-03-27T01:24:52.099Z,63.77
2023-03-27T01:27:25.840Z,63.56
2023-03-27T01:30:03.970Z,63.56
2023-03-27T01:33:00.696Z,63.50
2023-03-27T01:36:05.108Z,63.60
2023-03-27T01:39:17.691Z,62.89
2023-03-27T01:41:54.962Z,63.34
2023-03-27T01:44:42.950Z,63.56
2023-03-27T01:47:19.752Z,63.53
2023-03-27T01:49:55.631Z,63.26
2023-03-27T01:52:30.448Z,63.05
2023-03-27T01:55:05.085Z,63.18
2023-03-27T01:57:49.722Z,63.95
2023-03-27T02:00:22.873Z,63.40
2023-03-27T02:02:55.968Z,62.89
2023-03-27T02:05:30.267Z,63.26
2023-03-27T02:08:04.761Z,63.28
2023-03-27T02:10:41.677Z,63.05
2023-03-27T02:13:19.841Z,62.81
2023-03-27T02:15:50.583Z,63.07
2023-03-27T02:18:27.512Z,62.96
2023-03-27T02:20:56.037Z,62.99
2023-03-27T02:23:24.369Z,62.99
2023-03-27T02:25:55.379Z,62.92
2023-03-27T02:28:57.267Z,62.87
2023-03-27T02:31:40.004Z,63.22
2023-03-27T02:34:49.295Z,63.12
2023-03-27T02:37:32.096Z,63.57
2023-03-27T02:40:40.023Z,63.19
2023-03-27T02:43:35.626Z,63.60
2023-03-27T02:46:15.963Z,63.60
2023-03-27T02:48:47.426Z,63.82
2023-03-27T02:51:20.686Z,63.14
2023-03-27T02:53:54.139Z,63.86
2023-03-27T02:56:26.201Z,63.23
2023-03-27T02:59:01.080Z,63.22
2023-03-27T03:01:35.122Z,64.15
2023-03-27T03:04:19.301Z,64.27
2023-03-27T03:07:07.163Z,63.66
2023-03-27T03:09:41.127Z,64.31
2023-03-27T03:12:10.770Z,63.64
2023-03-27T03:14:45.390Z,63.92
2023-03-27T03:17:14.711Z,64.07
2023-03-27T03:19:43.134Z,64.06
2023-03-27T03:22:11.841Z,64.08
2023-03-27T03:24:43.814Z,63.82
2023-03-27T03:27:16.015Z,63.73
2023-03-27T03:29:53.695Z,64.08
2023-03-27T03:32:27.496Z,63.24
2023-03-27T03:34:57.077Z,61.94
2023-03-27T03:37:28.651Z,63.40
2023-03-27T03:39:59.054Z,62.68
2023-03-27T03:42:27.296Z,62.31
2023-03-27T03:44:59.407Z,62.31
2023-03-27T03:47:27.643Z,62.16
2023-03-27T03:49:55.882Z,62.82
2023-03-27T03:52:24.219Z,62.80
2023-03-27T03:54:52.784Z,63.11
2023-03-27T03:57:21.797Z,63.27
2023-03-27T04:00:08.523Z,63.89
2023-03-27T04:02:53.575Z,64.14
2023-03-27T04:05:22.662Z,64.29
2023-03-27T04:07:55.832Z,64.69
2023-03-27T04:10:38.152Z,64.81
2023-03-27T04:13:10.986Z,65.38
2023-03-27T04:15:50.091Z,65.84
2023-03-27T04:18:19.822Z,66.40
2023-03-27T04:20:50.331Z,66.32
2023-03-27T04:23:20.934Z,66.41
2023-03-27T04:25:49.720Z,66.85
2023-03-27T04:28:25.814Z,67.30
2023-03-27T04:31:10.943Z,67.55
2023-03-27T04:34:05.089Z,67.35
2023-03-27T04:37:01.477Z,67.60
2023-03-27T04:39:31.287Z,67.74
2023-03-27T04:41:59.555Z,67.35
2023-03-27T04:44:29.077Z,65.00
2023-03-27T04:47:01.833Z,62.93
2023-03-27T04:49:30.756Z,62.92
2023-03-27T04:52:03.937Z,63.17
2023-03-27T04:54:32.928Z,62.18
2023-03-27T04:57:03.324Z,62.43
2023-03-27T04:59:32.341Z,62.73
2023-03-27T05:02:21.324Z,63.42
2023-03-27T05:04:58.593Z,64.14
2023-03-27T05:07:32.939Z,64.98
2023-03-27T05:10:03.729Z,65.62
2023-03-27T05:12:34.139Z,66.02
2023-03-27T05:15:06.323Z,66.45
2023-03-27T05:17:44.035Z,66.57
2023-03-27T05:20:14.689Z,66.83
2023-03-27T05:22:44.050Z,67.12
2023-03-27T05:25:24.626Z,67.35
2023-03-27T05:27:54.444Z,67.89
2023-03-27T05:30:25.072Z,67.97
2023-03-27T05:33:07.882Z,68.22
2023-03-27T05:35:37.843Z,68.68
2023-03-27T05:38:06.563Z,68.83
2023-03-27T05:40:37.330Z,68.62
2023-03-27T05:43:06.005Z,68.56
2023-03-27T05:45:35.056Z,68.65
2023-03-27T05:48:04.578Z,68.62
2023-03-27T05:50:39.290Z,68.68
2023-03-27T05:53:16.180Z,69.10
2023-03-27T05:56:05.022Z,69.47
2023-03-27T05:58:42.986Z,69.72
2023-03-27T06:01:11.892Z,69.81
2023-03-27T06:03:40.296Z,70.09
2023-03-27T06:06:18.018Z,70.30
2023-03-27T06:08:47.233Z,70.29
2023-03-27T06:11:16.322Z,70.19
2023-03-27T06:13:48.821Z,70.07
2023-03-27T06:16:21.629Z,70.10
2023-03-27T06:19:04.780Z,70.26
2023-03-27T06:21:34.738Z,70.26
2023-03-27T06:24:04.093Z,70.26
2023-03-27T06:26:32.890Z,70.22
2023-03-27T06:29:08.170Z,70.05
2023-03-27T06:31:41.160Z,69.41
2023-03-27T06:34:15.026Z,68.62
2023-03-27T06:37:05.092Z,66.54
2023-03-27T06:39:40.447Z,65.55
2023-03-27T06:42:09.765Z,65.19
2023-03-27T06:45:09.492Z,64.85
2023-03-27T06:48:12.992Z,64.07
2023-03-27T06:50:50.172Z,63.56
2023-03-27T06:55:52.321Z,62.15
2023-03-27T06:58:21.998Z,62.29
2023-03-27T07:00:51.215Z,61.72
2023-03-27T07:03:21.338Z,62.07
2023-03-27T07:06:02.595Z,61.72
2023-03-27T07:08:50.800Z,61.25
2023-03-27T07:11:19.836Z,60.99
2023-03-27T07:13:56.569Z,60.60
2023-03-27T07:16:29.528Z,60.27
2023-03-27T07:19:01.678Z,60.06
2023-03-27T07:21:32.132Z,59.55
2023-03-27T07:24:02.687Z,59.84
2023-03-27T07:26:36.731Z,59.22
2023-03-27T07:29:12.210Z,59.56
2023-03-27T07:31:55.815Z,59.19
2023-03-27T07:34:48.940Z,58.83
2023-03-27T07:37:23.773Z,59.25
2023-03-27T07:40:14.414Z,58.64
2023-03-27T07:42:50.031Z,58.78
2023-03-27T07:45:23.986Z,58.67
2023-03-27T07:48:05.231Z,59.80
2023-03-27T07:50:33.687Z,62.83
2023-03-27T07:53:02.531Z,62.88
2023-03-27T07:55:32.241Z,60.28
2023-03-27T07:58:07.255Z,60.51
2023-03-27T08:00:38.881Z,60.17
2023-03-27T08:03:14.473Z,60.50
2023-03-27T08:05:58.503Z,60.96
2023-03-27T08:08:29.441Z,61.32
2023-03-27T08:11:02.398Z,62.16
2023-03-27T08:13:35.826Z,60.19
2023-03-27T08:16:07.177Z,60.78
2023-03-27T08:18:36.499Z,60.87
2023-03-27T08:21:08.234Z,61.36
2023-03-27T08:23:37.989Z,61.54
2023-03-27T08:26:26.518Z,61.96
2023-03-27T08:28:59.717Z,61.06
2023-03-27T08:31:31.468Z,61.43
2023-03-27T08:34:02.446Z,61.38
2023-03-27T08:36:46.623Z,62.37
2023-03-27T08:39:16.288Z,62.23
2023-03-27T08:41:58.152Z,62.67
2023-03-27T08:44:37.471Z,62.28
2023-03-27T08:47:16.028Z,62.98
2023-03-27T08:49:57.634Z,61.97
2023-03-27T08:52:52.393Z,63.32
2023-03-27T08:55:34.645Z,62.09
2023-03-27T08:58:21.513Z,63.73
2023-03-27T09:01:02.188Z,63.07
2023-03-27T09:03:38.890Z,63.39
2023-03-27T09:06:12.535Z,64.69
2023-03-27T09:08:56.699Z,68.45
2023-03-27T09:11:37.300Z,67.39
2023-03-27T09:14:15.871Z,67.20
2023-03-27T09:16:49.448Z,67.94
2023-03-27T09:19:42.728Z,68.42
2023-03-27T09:22:19.761Z,64.70
2023-03-27T09:25:04.519Z,69.74
2023-03-27T09:27:35.087Z,68.93
2023-03-27T09:30:24.803Z,68.20
2023-03-27T09:33:03.466Z,66.54
2023-03-27T09:35:33.109Z,69.17
2023-03-27T09:38:07.052Z,69.71
2023-03-27T09:40:44.549Z,65.37
2023-03-27T09:43:18.284Z,67.36
2023-03-27T09:45:50.020Z,68.44
2023-03-27T09:48:29.311Z,67.23
2023-03-27T09:50:58.675Z,66.60
2023-03-27T09:53:33.706Z,67.14
2023-03-27T09:56:16.397Z,66.57
2023-03-27T09:58:57.283Z,67.74
2023-03-27T10:01:34.442Z,67.04
2023-03-27T10:04:16.312Z,64.27
2023-03-27T10:06:48.891Z,66.47
2023-03-27T10:09:28.287Z,66.93
2023-03-27T10:12:04.786Z,65.84
2023-03-27T10:14:36.109Z,67.15
2023-03-27T10:17:06.498Z,68.65
2023-03-27T10:19:38.750Z,67.52
2023-03-27T10:22:24.660Z,69.25
2023-03-27T10:24:54.711Z,66.70
2023-03-27T10:27:43.720Z,65.69
2023-03-27T10:30:41.668Z,65.52
2023-03-27T10:33:36.636Z,68.99
2023-03-27T10:36:28.365Z,67.95
2023-03-27T10:39:02.102Z,69.09
2023-03-27T10:41:42.331Z,68.58
2023-03-27T10:44:17.742Z,68.37
2023-03-27T10:46:53.706Z,67.66
2023-03-27T10:49:33.559Z,66.72
2023-03-27T10:52:15.828Z,67.51
2023-03-27T10:55:22.709Z,68.76
2023-03-27T10:57:56.139Z,69.31
2023-03-27T11:00:36.835Z,68.78
2023-03-27T11:03:14.907Z,67.81
2023-03-27T11:05:48.905Z,67.94
2023-03-27T11:08:33.032Z,71.08
2023-03-27T11:11:08.454Z,68.77
2023-03-27T11:13:44.818Z,70.19
2023-03-27T11:16:17.711Z,72.68
2023-03-27T11:19:33.157Z,68.71
2023-03-27T11:22:28.209Z,69.08
2023-03-27T11:25:03.942Z,69.04
2023-03-27T11:27:37.703Z,73.91
2023-03-27T11:30:24.731Z,71.17
2023-03-27T11:33:09.287Z,69.59
2023-03-27T11:35:40.498Z,70.17
2023-03-27T11:38:39.631Z,69.81
2023-03-27T11:41:14.632Z,68.83
2023-03-27T11:43:44.868Z,69.94
2023-03-27T11:46:45.951Z,68.90
2023-03-27T11:49:26.235Z,69.58
2023-03-27T11:52:06.996Z,69.87
2023-03-27T11:54:51.116Z,69.70
2023-03-27T11:57:28.299Z,102.18
2023-03-27T12:00:25.504Z,105.18
2023-03-27T12:03:28.082Z,105.05
2023-03-27T12:06:07.991Z,108.74
2023-03-27T12:08:55.571Z,106.63
2023-03-27T12:11:27.486Z,111.65
2023-03-27T12:14:40.225Z,112.23
2023-03-27T12:17:21.076Z,113.04
2023-03-27T12:20:26.844Z,111.30
2023-03-27T12:23:16.885Z,103.81
2023-03-27T12:26:18.811Z,108.41
2023-03-27T12:29:22.736Z,111.65
2023-03-27T12:32:16.885Z,111.84
2023-03-27T12:34:54.380Z,108.81
2023-03-27T12:37:31.946Z,109.30
2023-03-27T12:40:08.074Z,110.79
2023-03-27T12:42:44.691Z,109.93
2023-03-27T12:45:19.777Z,110.99
2023-03-27T12:48:18.059Z,110.27
2023-03-27T12:50:54.903Z,111.23
2023-03-27T12:53:49.201Z,115.04
2023-03-27T12:56:32.152Z,113.87
2023-03-27T12:59:01.286Z,114.01
2023-03-27T13:02:30.880Z,112.94
2023-03-27T13:05:27.377Z,113.29
2023-03-27T13:08:21.145Z,113.74
2023-03-27T13:11:10.467Z,114.18
2023-03-27T13:14:16.268Z,113.96
2023-03-27T13:17:07.073Z,113.83
2023-03-27T13:19:46.976Z,109.04
2023-03-27T13:22:36.544Z,106.16
2023-03-27T13:25:26.236Z,104.74
2023-03-27T13:28:22.727Z,108.89
2023-03-27T13:31:01.457Z,112.91
2023-03-27T13:34:13.592Z,111.68
2023-03-27T13:36:47.579Z,108.62
2023-03-27T13:39:24.860Z,103.60
2023-03-27T13:42:06.396Z,109.84
2023-03-27T13:44:51.835Z,110.06
2023-03-27T13:48:05.396Z,112.86
2023-03-27T13:51:06.835Z,112.34
2023-03-27T13:54:01.992Z,112.13
2023-03-27T13:57:00.124Z,115.04
2023-03-27T14:00:10.807Z,115.54
2023-03-27T14:03:12.032Z,114.41
2023-03-27T14:06:20.270Z,115.70
2023-03-27T14:08:59.950Z,115.31
2023-03-27T14:11:53.077Z,112.29
2023-03-27T14:15:10.505Z,110.05
2023-03-27T14:18:00.964Z,108.91
2023-03-27T14:20:31.349Z,111.03
2023-03-27T14:23:06.852Z,110.20
2023-03-27T14:26:01.859Z,112.52
2023-03-27T14:28:35.692Z,115.68
2023-03-27T14:31:08.647Z,116.51
2023-03-27T14:34:02.885Z,117.05
2023-03-27T14:36:35.968Z,116.05
2023-03-27T14:39:17.034Z,112.90
2023-03-27T14:41:55.735Z,104.93
2023-03-27T14:44:25.980Z,104.19
2023-03-27T14:47:04.059Z,107.96
2023-03-27T14:49:40.222Z,109.96
2023-03-27T14:52:18.015Z,106.53
2023-03-27T14:55:18.715Z,100.60
2023-03-27T14:57:54.456Z,99.41
2023-03-27T15:00:35.101Z,102.12
2023-03-27T15:03:11.447Z,101.42
2023-03-27T15:05:58.455Z,97.92
2023-03-27T15:08:37.066Z,96.03
2023-03-27T15:11:22.945Z,102.73
2023-03-27T15:14:01.506Z,106.59
2023-03-27T15:16:36.035Z,108.69
2023-03-27T15:19:12.506Z,114.80
2023-03-27T15:21:51.021Z,118.09
2023-03-27T15:24:24.317Z,115.36
2023-03-27T15:26:54.124Z,113.49
2023-03-27T15:29:32.298Z,111.51
2023-03-27T15:32:08.812Z,111.32
2023-03-27T15:34:47.251Z,113.69
2023-03-27T15:37:19.851Z,114.52
2023-03-27T15:40:07.313Z,111.38
2023-03-27T15:42:47.511Z,107.43
2023-03-27T15:45:17.857Z,104.83
2023-03-27T15:48:01.196Z,112.13
2023-03-27T15:50:31.369Z,117.86
2023-03-27T15:53:01.518Z,111.84
2023-03-27T15:55:36.759Z,110.06
2023-03-27T15:58:20.687Z,115.06
2023-03-27T16:00:52.022Z,114.30
2023-03-27T16:03:23.504Z,114.69
2023-03-27T16:05:56.595Z,115.17
2023-03-27T16:08:30.282Z,114.92
2023-03-27T16:11:00.614Z,115.25
2023-03-27T16:13:34.816Z,115.48
2023-03-27T16:16:05.930Z,115.03
2023-03-27T16:18:36.683Z,115.12
2023-03-27T16:21:13.346Z,115.99
2023-03-27T16:23:42.047Z,114.35
2023-03-27T16:26:16.324Z,115.27
2023-03-27T16:28:44.845Z,114.51
2023-03-27T16:31:15.902Z,113.77
2023-03-27T16:33:45.645Z,114.61
2023-03-27T16:36:17.393Z,114.56
2023-03-27T16:38:46.004Z,112.48
2023-03-27T16:41:15.400Z,114.81
2023-03-27T16:43:44.725Z,115.70
2023-03-27T16:46:18.250Z,115.93
2023-03-27T16:48:46.556Z,115.86
2023-03-27T16:51:16.471Z,115.70
2023-03-27T16:53:44.753Z,115.64
2023-03-27T16:56:13.033Z,115.40
2023-03-27T16:58:41.534Z,115.67
2023-03-27T17:01:10.358Z,115.11
2023-03-27T17:03:38.686Z,115.52
2023-03-27T17:06:09.129Z,115.55
2023-03-27T17:08:39.400Z,116.33
2023-03-27T17:11:10.429Z,115.62
2023-03-27T17:13:41.693Z,114.17
2023-03-27T17:16:11.639Z,113.19
2023-03-27T17:18:39.940Z,112.21
2023-03-27T17:21:08.596Z,112.04
2023-03-27T17:23:38.207Z,111.81
2023-03-27T17:26:07.945Z,109.85
2023-03-27T17:28:37.481Z,109.23
2023-03-27T17:31:06.151Z,109.14
2023-03-27T17:33:35.028Z,108.61
2023-03-27T17:36:08.875Z,108.04
2023-03-27T17:38:39.796Z,105.09
2023-03-27T17:41:08.454Z,109.38
2023-03-27T17:43:37.224Z,110.39
2023-03-27T17:46:05.861Z,107.48
2023-03-27T17:48:34.289Z,107.83
2023-03-27T17:51:08.985Z,107.53
2023-03-27T17:53:40.670Z,104.82
2023-03-27T17:56:09.910Z,103.05
2023-03-27T17:58:38.303Z,104.98
2023-03-27T18:01:16.570Z,105.02
2023-03-27T18:03:45.332Z,105.11
2023-03-27T18:06:14.138Z,102.53
2023-03-27T18:08:44.096Z,105.97
2023-03-27T18:11:14.502Z,105.12
2023-03-27T18:13:43.218Z,105.93
2023-03-27T18:16:12.136Z,102.69
2023-03-27T18:18:40.835Z,105.23
2023-03-27T18:21:09.977Z,105.76
2023-03-27T18:23:45.558Z,106.01
2023-03-27T18:26:16.849Z,104.57
2023-03-27T18:28:45.388Z,107.74
2023-03-27T18:31:14.015Z,107.05
2023-03-27T18:33:42.295Z,106.83
2023-03-27T18:36:11.990Z,105.63
2023-03-27T18:38:41.826Z,106.37
2023-03-27T18:41:10.878Z,106.29
2023-03-27T18:43:40.716Z,104.68
2023-03-27T18:46:10.787Z,105.25
2023-03-27T18:48:39.106Z,101.62
2023-03-27T18:51:07.681Z,104.15
2023-03-27T18:53:36.367Z,104.52
2023-03-27T18:56:05.258Z,102.14
2023-03-27T18:58:33.915Z,101.87
2023-03-27T19:01:08.262Z,103.02
2023-03-27T19:03:37.369Z,100.85
2023-03-27T19:06:07.850Z,102.92
2023-03-27T19:08:38.044Z,101.00
2023-03-27T19:11:07.020Z,103.92
2023-03-27T19:13:54.092Z,101.51
2023-03-27T19:16:35.756Z,103.91
2023-03-27T19:19:23.334Z,102.67
2023-03-27T19:21:54.903Z,99.45
2023-03-27T19:24:36.632Z,98.79
2023-03-27T19:27:05.556Z,97.02
2023-03-27T19:29:34.082Z,95.22
2023-03-27T19:32:03.690Z,93.38
2023-03-27T19:34:42.035Z,91.46
2023-03-27T19:37:11.302Z,90.81
2023-03-27T19:39:39.524Z,87.96
2023-03-27T19:42:07.809Z,87.22
2023-03-27T19:44:39.073Z,87.03
2023-03-27T19:47:09.863Z,84.35
2023-03-27T19:49:38.180Z,85.49
2023-03-27T19:52:32.514Z,83.06
2023-03-27T19:55:00.787Z,80.85
2023-03-27T19:57:29.198Z,80.94
2023-03-27T19:59:57.398Z,78.79
2023-03-27T20:02:27.823Z,79.49
2023-03-27T20:04:57.271Z,77.98
2023-03-27T20:07:25.670Z,78.13
2023-03-27T20:09:53.894Z,75.83
2023-03-27T20:12:24.945Z,75.66
2023-03-27T20:15:02.913Z,74.32
2023-03-27T20:17:37.256Z,73.41
2023-03-27T20:20:07.509Z,71.57
2023-03-27T20:22:43.403Z,70.78
2023-03-27T20:25:18.931Z,69.59
2023-03-27T20:27:47.252Z,69.07
2023-03-27T20:30:15.605Z,68.87
2023-03-27T20:32:45.279Z,68.76
2023-03-27T20:35:23.554Z,68.84
2023-03-27T20:37:57.779Z,68.52
2023-03-27T20:40:32.907Z,68.24
2023-03-27T20:43:06.056Z,67.97
2023-03-27T20:45:34.359Z,67.64
2023-03-27T20:48:04.356Z,67.10
2023-03-27T20:50:35.306Z,66.78
2023-03-27T20:53:04.407Z,66.29
2023-03-27T20:55:39.276Z,65.86
2023-03-27T20:58:14.232Z,65.45
2023-03-27T21:00:43.760Z,65.33
2023-03-27T21:03:13.624Z,65.15
2023-03-27T21:05:41.873Z,65.11
2023-03-27T21:08:10.234Z,64.92
2023-03-27T21:10:38.760Z,64.98
2023-03-27T21:13:07.284Z,65.01
2023-03-27T21:15:36.337Z,65.29
2023-03-27T21:18:04.888Z,65.79
2023-03-27T21:20:35.493Z,66.49
2023-03-27T21:23:03.867Z,67.27
2023-03-27T21:25:32.126Z,67.51
2023-03-27T21:28:05.660Z,67.46
2023-03-27T21:30:46.880Z,67.57
2023-03-27T21:33:17.990Z,67.27
2023-03-27T21:35:49.090Z,67.08
2023-03-27T21:38:18.609Z,66.76
2023-03-27T21:40:47.817Z,66.27
2023-03-27T21:43:16.333Z,65.53
2023-03-27T21:45:46.625Z,65.08
2023-03-27T21:48:15.038Z,64.45
2023-03-27T21:50:43.346Z,64.22
2023-03-27T21:53:13.578Z,64.36
2023-03-27T21:55:42.588Z,64.05
2023-03-27T21:58:11.106Z,63.64
2023-03-27T22:00:39.534Z,63.68
2023-03-27T22:03:07.938Z,63.66
2023-03-27T22:05:37.785Z,63.76
2023-03-27T22:08:06.851Z,63.72
2023-03-27T22:10:37.055Z,63.76
2023-03-27T22:13:05.527Z,63.82
2023-03-27T22:15:33.920Z,63.67
2023-03-27T22:18:02.371Z,63.76
2023-03-27T22:20:30.779Z,63.69
2023-03-27T22:22:59.114Z,63.64
2023-03-27T22:25:27.403Z,63.54
2023-03-27T22:27:56.964Z,63.53
2023-03-27T22:30:25.257Z,63.40
2023-03-27T22:32:53.563Z,63.24
2023-03-27T22:35:21.890Z,63.33
2023-03-27T22:37:50.217Z,63.19
2023-03-27T22:40:18.475Z,63.32
2023-03-27T22:42:46.752Z,63.27
2023-03-27T22:45:16.459Z,63.22
2023-03-27T22:47:44.790Z,63.15
2023-03-27T22:50:13.048Z,62.98
2023-03-27T22:52:41.339Z,63.20
2023-03-27T22:55:10.848Z,62.97
2023-03-27T22:57:39.168Z,63.01
2023-03-27T23:00:09.125Z,62.95
2023-03-27T23:02:38.957Z,63.02
2023-03-27T23:05:07.992Z,63.05
2023-03-27T23:07:36.526Z,62.91
2023-03-27T23:10:05.017Z,63.06
2023-03-27T23:12:33.294Z,63.02
2023-03-27T23:15:01.566Z,62.97
2023-03-27T23:17:29.815Z,62.88
2023-03-27T23:19:59.515Z,63.03
2023-03-27T23:22:27.792Z,62.91
2023-03-27T23:24:56.044Z,62.90
2023-03-27T23:27:24.274Z,62.83
2023-03-27T23:29:52.518Z,62.91
2023-03-27T23:32:20.841Z,63.08
2023-03-27T23:34:49.077Z,62.87
2023-03-27T23:37:18.734Z,62.93
2023-03-27T23:39:47.198Z,62.96
2023-03-27T23:42:15.790Z,63.00
2023-03-27T23:44:44.107Z,62.89
2023-03-27T23:47:12.487Z,62.92
2023-03-27T23:49:41.101Z,62.97
2023-03-27T23:52:09.676Z,62.98
2023-03-27T23:54:39.268Z,62.93
2023-03-27T23:57:07.568Z,62.95
2023-03-27T23:59:38.112Z,62.89
